Date,TemperatureHighF,TemperatureAvgF,TemperatureLowF,DewpointHighF,DewpointAvgF,DewpointLowF,HumidityHigh,HumidityAvg,HumidityLow,PressureMaxIn,PressureMinIn,WindSpeedMaxMPH,WindSpeedAvgMPH,GustSpeedMaxMPH,PrecipitationSumIn
2013-1-1,38,32,30,27,26,24,85,77,62,30.44,30.36,15,3,15,0.00
2013-1-2,38,34,32,27,25,24,76,68,63,30.30,30.19,14,5,17,0.00
2013-1-3,38,35,31,33,25,23,86,68,58,30.25,30.13,15,3,17,0.00
2013-1-4,43,38,35,40,34,28,98,88,75,30.34,30.16,10,1,10,0.01
2013-1-5,38,36,34,35,31,28,93,83,76,30.21,30.15,6,1,8,0.02
2013-1-6,42,38,34,42,37,33,100,97,93,30.24,30.06,12,0,14,0.30
2013-1-7,50,46,42,49,45,42,98,96,94,30.20,29.97,23,6,25,0.33
2013-1-8,52,50,44,50,47,43,98,92,86,30.19,29.89,26,6,27,0.11
2013-1-9,50,42,35,46,40,34,97,93,81,29.97,29.69,29,5,29,0.33
2013-1-10,36,35,33,35,34,32,98,97,96,30.10,29.97,12,2,14,0.17
2013-1-11,36,32,30,33,30,28,98,93,78,30.30,30.09,5,0,5,0.01
2013-1-12,34,28,25,31,27,24,98,95,86,30.40,30.28,4,0,5,0.00
2013-1-13,32,27,25,28,26,24,98,94,83,30.48,30.39,5,0,6,0.00
2013-1-14,30,28,27,28,26,25,96,94,89,30.57,30.44,6,1,6,0.00
2013-1-17,33,31,30,32,30,29,98,96,92,30.44,30.41,5,1,5,0.00
2013-1-18,35,30,26,32,28,25,100,94,89,30.29,30.26,2,0,3,0.00
2013-1-19,38,29,25,36,28,24,99,96,91,30.34,30.27,4,0,5,0.01
2013-1-20,41,30,25,35,28,24,98,90,66,30.35,30.24,6,0,6,0.01
2013-1-21,36,29,23,32,27,22,97,93,83,30.28,30.15,9,1,9,0.00
2013-1-22,42,31,24,32,26,22,100,81,58,30.16,29.94,7,0,9,0.00
2013-1-23,36,33,31,33,29,25,98,85,67,30.20,29.88,9,0,10,0.25
2013-1-24,41,36,34,40,36,33,99,98,97,30.23,30.10,7,0,7,0.29
2013-1-25,49,45,40,49,45,40,99,99,97,30.13,29.94,11,1,14,0.19
2013-1-26,43,40,38,42,39,37,98,96,91,30.08,29.92,14,3,17,0.12
2013-1-27,41,39,37,39,38,37,98,97,94,30.14,30.03,16,4,17,0.28
2013-1-28,42,40,38,41,40,38,99,98,97,30.20,30.07,17,4,17,0.56
2013-1-29,44,43,42,44,43,41,99,98,96,30.47,30.19,16,5,18,0.35
2013-1-30,47,44,42,46,44,41,100,98,96,30.45,30.40,24,8,25,0.12
2013-1-31,46,44,44,45,44,43,99,99,98,30.44,30.40,11,1,12,0.00
2013-2-3,46,43,39,44,42,39,99,95,89,30.32,30.22,5,0,6,0.01
2013-2-4,50,45,41,44,42,40,98,90,73,30.23,29.93,6,0,9,0.00
2013-2-5,49,45,42,45,43,41,96,92,83,30.03,29.90,18,4,18,0.20
2013-2-6,49,45,41,43,41,38,95,87,73,30.09,29.84,18,3,24,0.14
2013-2-7,48,41,36,40,38,35,97,89,63,30.14,29.91,13,2,15,0.07
2013-2-8,41,37,33,38,35,32,98,95,87,30.27,30.13,9,0,9,0.00
2013-2-9,41,39,36,41,38,34,100,96,91,30.29,30.24,10,2,10,0.04
2013-2-10,44,41,39,40,39,37,99,92,83,30.34,30.29,5,0,5,0.01
2013-2-11,44,42,40,42,39,36,97,90,84,30.37,30.30,15,2,17,0.00
2013-2-12,53,47,43,48,45,42,97,92,80,30.47,30.38,15,4,17,0.00
2013-2-13,52,47,44,47,44,41,95,90,79,30.50,30.41,14,2,14,0.00
2013-2-14,44,42,40,41,40,39,96,92,89,30.53,30.49,4,0,4,0.00
2013-2-15,59,49,40,47,44,40,99,82,59,30.41,30.18,12,2,13,0.00
2013-2-16,52,44,40,46,41,37,100,89,66,30.27,30.18,17,2,18,0.01
2013-2-17,46,41,36,38,36,30,93,83,58,30.28,30.08,8,0,9,0.00
2013-2-18,37,36,35,35,34,32,95,90,85,30.08,29.99,2,0,3,0.00
2013-2-22,44,42,36,43,40,35,97,94,88,30.06,29.86,28,5,30,1.05
2013-2-23,45,39,36,41,37,34,100,92,81,30.43,30.05,16,3,17,0.13
2013-2-24,50,40,36,38,35,33,94,83,55,30.43,30.26,14,3,16,0.01
2013-2-28,50,50,49,49,48,48,97,95,95,30.25,30.19,22,6,23,0.08
2013-3-1,58,54,52,52,50,48,94,87,78,30.44,30.30,15,2,16,0.06
2013-3-2,53,49,41,50,46,37,96,89,82,30.30,30.14,7,1,15,0.00
2013-3-3,48,41,35,39,35,33,92,79,58,30.30,30.23,7,0,9,0.00
2013-3-4,56,44,33,34,31,28,95,65,36,30.24,29.90,11,1,11,0.00
2013-3-5,45,41,38,44,37,29,97,84,59,29.90,29.62,9,1,9,0.33
2013-3-6,43,41,39,42,39,38,98,95,88,29.95,29.52,21,4,25,0.42
2013-3-7,54,45,36,41,37,34,95,77,51,30.05,29.96,12,1,12,0.00
2013-3-8,46,39,36,38,37,35,97,92,74,30.06,30.01,9,2,10,0.00
2013-3-9,57,50,37,42,39,35,94,65,49,30.48,30.31,5,0,6,0.00
2013-3-10,49,44,39,43,39,34,95,84,73,30.48,30.41,5,0,6,0.00
2013-3-11,53,48,44,50,46,42,97,93,87,30.42,30.22,12,1,12,0.02
2013-3-12,58,52,48,50,48,46,96,87,73,30.22,30.14,13,2,13,0.00
2013-3-13,62,55,49,51,48,44,89,77,61,30.21,30.07,10,1,10,0.00
2013-3-14,57,53,50,49,47,42,94,81,60,30.19,30.02,14,2,16,0.00
2013-3-15,63,55,50,51,48,44,95,78,53,30.22,30.14,15,2,17,0.00
2013-3-16,50,45,38,47,43,36,96,93,87,30.15,29.98,14,2,18,0.28
2013-3-17,48,41,36,38,35,34,94,81,63,30.29,30.13,15,3,19,0.01
2013-3-18,51,43,36,39,36,34,92,78,56,30.27,30.14,12,2,14,0.00
2013-3-19,50,44,38,46,39,33,98,84,59,30.14,29.65,11,1,11,0.52
2013-3-20,51,47,39,50,43,34,98,86,68,30.15,29.51,23,4,27,0.36
2013-3-21,48,40,36,39,35,33,94,82,61,30.30,30.14,15,2,17,0.01
2013-3-22,46,38,33,38,34,30,96,87,57,30.39,30.28,11,1,14,0.04
2013-3-23,36,34,33,34,33,32,97,95,93,30.38,30.36,3,0,3,0.00
2013-3-28,63,55,46,51,47,43,97,76,50,30.12,29.99,9,1,9,0.00
2013-3-29,66,57,49,51,48,46,96,76,51,30.19,30.11,7,1,9,0.01
2013-3-30,55,50,46,48,46,44,91,85,76,30.16,30.12,10,2,10,0.00
2013-4-2,64,56,49,50,49,46,92,76,59,30.19,30.10,12,1,12,0.00
2013-4-3,64,55,46,52,48,45,97,80,60,30.15,29.89,5,1,6,0.00
2013-4-4,59,55,52,56,51,48,97,88,77,29.89,29.68,20,3,28,0.20
2013-4-5,56,52,49,51,49,48,96,90,77,29.93,29.80,23,4,24,0.33
2013-4-6,55,48,43,49,46,42,97,91,72,29.99,29.71,18,2,21,0.68
2013-4-7,50,46,42,49,43,38,98,89,79,29.95,29.53,27,4,33,0.22
2013-4-8,54,46,40,47,42,38,96,88,67,30.28,29.95,13,2,13,0.04
2013-4-9,55,49,41,46,43,40,96,82,64,30.35,30.23,6,0,6,0.00
2013-4-10,58,52,46,55,45,38,97,79,62,30.32,30.08,25,3,26,0.13
2013-4-11,54,47,39,44,40,37,94,77,62,30.34,30.17,6,0,7,0.00
2013-4-12,51,45,38,45,40,35,95,84,71,30.17,29.84,17,1,17,0.04
2013-4-13,50,43,37,42,38,33,96,81,58,30.08,29.90,18,3,21,0.09
2013-4-14,50,42,39,42,39,36,96,89,67,30.08,29.93,14,2,16,0.16
2013-4-15,54,45,38,42,38,32,97,79,45,30.17,29.94,12,1,13,0.14
2013-4-16,57,46,38,43,39,33,97,77,44,30.39,30.17,11,1,14,0.05
2013-4-17,58,47,37,43,39,35,93,75,49,30.49,30.38,9,0,9,0.00
2013-4-18,58,51,44,48,43,40,94,75,60,30.48,30.30,10,1,11,0.02
2013-4-19,55,51,48,52,48,46,97,92,81,30.30,30.14,23,4,25,0.46
2013-4-20,58,51,46,46,44,42,95,80,59,30.34,30.25,11,2,13,0.00
2013-4-21,52,48,45,49,44,41,95,87,76,30.31,30.24,11,1,11,0.00
2013-4-22,64,52,40,43,36,25,96,61,25,30.42,30.31,14,2,16,0.00
2013-4-23,66,54,41,40,33,24,73,48,20,30.37,30.14,13,2,15,0.00
2013-4-24,53,51,49,35,33,32,55,51,49,30.24,30.22,4,0,5,0.00
2013-4-26,77,65,46,52,44,35,93,52,25,30.23,30.15,9,1,9,0.00
2013-4-27,67,56,52,48,42,34,84,60,37,30.24,30.16,10,1,14,0.00
2013-4-28,64,56,50,50,46,39,90,69,42,30.24,30.07,17,2,17,0.00
2013-4-29,58,51,42,49,40,30,94,68,38,30.21,30.04,18,2,19,0.07
2013-4-30,53,46,39,40,35,31,88,67,48,30.43,30.21,10,1,11,0.01
2013-5-1,67,53,38,41,37,34,88,58,32,30.50,30.42,12,2,12,0.00
2013-5-2,77,63,50,41,37,32,54,39,22,30.44,30.23,14,2,14,0.00
2013-5-3,77,64,50,47,39,34,60,42,23,30.27,30.10,22,4,24,0.00
2013-5-4,72,59,54,46,43,38,67,56,31,30.11,30.03,32,8,32,0.00
2013-5-6,81,73,60,56,52,48,68,49,36,29.84,29.72,21,5,21,0.00
2013-5-7,75,62,50,54,49,46,89,66,41,30.00,29.84,20,4,21,0.00
2013-5-8,66,56,49,55,50,46,93,80,65,30.13,30.00,10,1,14,0.00
2013-5-9,75,62,49,56,52,48,96,71,40,30.17,30.05,8,1,10,0.00
2013-5-10,82,69,54,58,54,47,89,62,31,30.17,30.07,8,1,9,0.00
2013-5-11,82,69,56,60,56,51,85,63,39,30.16,29.97,7,1,9,0.00
2013-5-12,68,62,57,60,57,55,95,83,71,30.09,30.03,11,1,12,0.08
2013-5-13,65,58,56,56,55,49,96,90,58,30.07,30.02,19,3,19,0.02
2013-5-16,63,56,52,55,52,49,95,87,69,29.97,29.92,17,2,17,0.03
2013-5-17,62,54,49,51,48,46,96,83,58,30.09,29.97,15,1,15,0.04
2013-5-18,56,52,49,52,49,46,97,92,76,30.26,30.08,11,1,13,0.37
2013-5-19,62,55,51,52,49,45,97,81,54,30.40,30.26,9,1,10,0.02
2013-5-20,69,57,46,52,46,40,96,70,35,30.33,29.88,10,1,11,0.00
2013-5-21,56,52,49,47,45,43,88,79,62,29.89,29.86,12,3,16,0.01
2013-5-22,47,44,40,46,43,39,97,96,94,29.95,29.92,18,5,21,0.81
2013-5-23,54,47,44,49,45,43,97,94,75,30.01,29.94,20,4,20,0.98
2013-5-24,56,50,46,51,47,46,100,91,74,30.08,29.96,18,3,23,0.37
2013-5-25,66,56,48,51,48,43,97,78,48,30.07,29.91,13,1,14,0.01
2013-5-26,63,56,52,54,51,48,97,83,64,30.01,29.92,19,3,19,0.13
2013-5-27,61,54,50,58,51,47,98,91,78,29.97,29.73,16,1,18,0.60
2013-5-28,52,51,51,50,49,48,96,92,89,29.88,29.84,12,2,12,0.04
2013-6-3,73,65,54,55,52,48,83,63,45,30.10,30.00,11,1,11,0.00
2013-6-4,82,66,50,55,51,46,88,61,33,30.06,29.94,9,1,10,0.00
2013-6-5,82,70,59,60,54,50,76,58,37,30.05,29.94,9,1,10,0.00
2013-6-6,81,68,56,60,55,45,86,64,40,30.03,29.95,10,1,11,0.00
2013-6-7,79,66,55,58,49,39,81,56,32,30.12,30.02,12,1,13,0.00
2013-6-8,76,63,50,53,48,38,91,62,32,30.15,30.03,9,1,10,0.00
2013-6-9,71,60,51,51,48,45,87,67,46,30.08,29.96,11,1,12,0.00
2013-6-10,53,49,46,46,44,42,88,81,75,30.01,29.97,6,0,8,0.00
2013-6-11,63,58,52,51,46,42,80,66,55,30.12,30.03,16,1,18,0.00
2013-6-12,62,55,51,52,49,46,94,81,59,30.16,30.11,13,1,15,0.03
2013-6-13,58,54,49,55,51,47,97,91,83,30.27,30.15,16,3,18,0.31
2013-6-14,65,58,50,53,50,48,93,77,59,30.27,29.97,10,1,11,0.00
2013-6-15,77,64,51,59,54,49,94,70,42,29.98,29.88,11,1,11,0.00
2013-6-16,72,62,52,58,54,49,94,75,56,30.08,29.98,8,0,10,0.00
2013-6-17,75,63,52,55,52,49,91,68,45,30.08,29.91,14,2,16,0.00
2013-6-18,69,60,54,52,50,46,87,69,47,29.98,29.90,15,2,20,0.00
2013-6-19,64,57,51,54,50,47,89,77,62,30.07,29.93,20,3,20,0.01
2013-6-20,66,58,51,54,51,49,92,78,60,30.12,30.03,14,3,16,0.02
2013-6-21,68,61,54,53,50,48,86,70,51,30.16,30.09,5,0,6,0.00
2013-6-22,78,65,52,55,50,43,88,61,30,30.10,29.82,9,1,10,0.00
2013-6-23,68,63,58,62,58,51,96,84,59,29.82,29.61,10,1,10,0.18
2013-6-24,66,59,54,60,54,51,96,84,64,29.69,29.61,16,3,20,0.05
2013-6-25,67,60,56,62,56,53,95,87,69,29.85,29.66,13,1,18,0.15
2013-6-26,70,63,58,61,58,55,98,82,62,30.02,29.83,11,1,11,0.17
2013-6-27,76,65,61,63,59,57,90,81,61,30.10,29.99,11,1,11,0.00
2013-6-29,87,79,66,64,61,58,78,55,43,30.07,29.92,7,1,8,0.00
2013-6-30,94,79,65,69,64,60,86,62,38,29.95,29.78,9,1,10,0.00
2013-7-1,90,78,67,70,65,62,85,66,49,29.97,29.86,7,0,7,0.00
2013-7-2,85,72,62,65,61,58,86,71,48,30.03,29.97,8,1,10,0.00
2013-7-3,82,74,62,56,51,45,68,46,33,30.11,29.99,10,1,11,0.00
2013-7-4,64,58,53,53,51,48,89,79,62,30.12,30.06,6,0,6,0.00
2013-7-5,70,63,57,55,52,50,81,69,57,30.04,29.95,7,1,7,0.00
2013-7-14,82,73,58,53,48,40,75,44,26,30.06,29.93,19,7,19,0.00
2013-7-15,82,69,56,53,48,40,79,51,33,29.99,29.78,22,6,22,0.00
2013-7-16,90,74,62,60,54,46,79,52,27,29.94,29.73,19,3,20,0.00
2013-7-17,61,59,58,55,54,54,87,85,80,30.09,29.94,13,3,18,0.00
2013-7-18,78,74,66,60,57,46,75,56,34,30.09,30.04,7,1,11,0.00
2013-7-19,66,59,56,58,55,53,91,86,75,30.11,30.08,9,0,9,0.00
2013-7-20,78,66,56,63,58,54,95,76,56,30.06,29.91,7,1,9,0.00
2013-7-21,78,64,55,62,57,52,92,78,56,29.98,29.87,7,1,9,0.00
2013-7-22,79,66,56,61,56,53,91,73,44,30.03,29.91,8,1,14,0.00
2013-7-23,85,71,58,64,60,56,96,71,42,30.02,29.90,11,1,11,0.00
2013-7-24,87,73,59,61,58,52,86,61,32,30.01,29.93,11,1,11,0.00
2013-7-25,87,72,58,60,55,48,80,57,28,30.05,29.97,11,1,11,0.00
2013-7-26,88,71,58,58,52,44,78,54,30,30.12,30.01,10,1,12,0.00
2013-7-27,78,65,54,54,51,46,86,62,37,30.16,29.97,9,1,10,0.00
2013-7-28,72,60,51,56,52,48,92,74,55,30.04,29.95,8,1,10,0.00
2013-7-29,73,61,55,55,52,50,85,73,52,29.99,29.92,9,1,10,0.00
2013-8-10,80,71,60,63,61,58,93,72,54,29.97,29.92,10,1,10,0.00
2013-8-11,73,68,62,61,59,57,83,75,65,30.00,29.96,7,0,7,0.01
2013-8-12,76,66,57,60,57,55,94,76,54,30.04,29.98,7,0,9,0.00
2013-8-13,80,68,54,59,55,52,92,66,38,30.08,29.89,9,0,10,0.00
2013-8-14,82,71,61,60,55,47,81,60,30,29.94,29.88,10,0,13,0.00
2013-8-15,78,72,65,68,64,59,91,76,63,29.94,29.90,7,0,7,0.01
2013-8-16,81,71,64,67,64,60,97,80,56,30.01,29.92,10,0,10,0.00
2013-8-17,81,70,59,62,58,54,84,67,47,30.06,29.97,11,1,11,0.00
2013-8-18,80,69,60,61,58,57,90,71,48,30.11,30.00,9,1,10,0.00
2013-8-19,82,70,60,60,57,52,91,66,40,30.09,30.00,8,1,10,0.00
2013-8-23,63,59,58,58,57,56,95,92,85,29.92,29.87,10,2,12,0.02
2013-8-27,61,61,60,57,56,56,89,86,83,29.92,29.91,2,0,2,0.00
2013-8-28,80,72,61,65,62,59,94,71,53,29.88,29.82,10,0,10,0.03
2013-8-29,76,69,64,67,64,62,98,86,68,30.04,29.81,20,2,20,0.29
2013-8-30,72,65,63,63,62,60,95,89,67,30.12,30.04,9,1,11,0.00
2013-9-1,81,71,59,60,56,52,84,61,38,29.87,29.76,12,1,12,0.00
2013-9-2,79,71,63,62,57,53,79,63,47,29.90,29.84,12,1,14,0.00
2013-9-3,76,67,59,62,58,55,95,74,50,29.96,29.89,7,0,7,0.06
2013-9-4,72,66,61,61,59,56,88,78,66,30.03,29.95,5,0,7,0.00
2013-9-5,66,63,61,62,60,58,96,89,82,30.00,29.94,7,0,7,0.05
2013-9-6,68,63,59,61,59,58,98,87,73,30.11,30.04,19,3,20,0.91
2013-9-7,76,66,56,62,59,55,98,81,57,30.09,29.93,8,1,10,0.00
2013-9-8,82,70,59,63,60,57,96,74,47,30.04,29.96,10,1,12,0.00
2013-9-9,79,68,60,65,62,59,96,81,58,30.01,29.89,9,1,11,0.00
2013-9-10,86,73,61,67,63,59,96,75,51,29.90,29.74,9,1,10,0.00
2013-9-11,94,80,68,67,63,59,76,58,36,29.89,29.78,9,1,10,0.00
2013-9-12,80,68,58,65,61,56,94,79,60,29.96,29.86,8,1,10,0.00
2013-9-13,72,64,59,64,60,57,95,88,74,29.94,29.81,6,1,9,0.00
2013-9-14,76,66,60,65,62,59,97,86,68,29.83,29.68,5,0,6,0.01
2013-9-15,65,62,59,62,59,57,96,92,84,29.78,29.68,12,2,13,0.01
2013-9-18,68,62,55,52,50,48,83,66,51,30.03,30.00,3,0,5,0.00
2013-9-19,79,63,50,54,50,48,93,67,38,30.00,29.75,5,0,6,0.00
2013-9-20,62,57,53,53,51,49,88,81,71,29.75,29.67,5,0,6,0.00
2013-9-23,59,56,53,57,55,52,97,94,87,29.99,29.94,13,2,13,0.22
2013-9-24,58,52,50,53,51,49,98,96,83,29.97,29.84,12,2,14,0.48
2013-9-25,58,51,48,52,49,47,98,92,72,30.02,29.84,9,1,9,0.20
2013-9-26,61,53,48,52,49,46,97,87,65,30.15,30.01,6,0,6,0.00
2013-9-27,55,52,49,54,50,47,97,93,87,30.15,29.90,21,5,24,0.29
2013-9-28,63,56,51,58,55,50,97,95,84,29.90,29.47,31,6,35,1.27
2013-9-29,55,53,51,54,51,50,98,96,91,29.67,29.34,27,5,30,1.32
2013-9-30,54,51,50,52,49,48,96,93,91,29.99,29.92,12,2,13,0.62
2013-10-1,55,50,47,51,48,45,98,92,78,30.18,29.96,13,2,15,0.34
2013-10-2,51,47,44,48,45,43,98,94,89,30.18,30.06,12,1,14,0.27
2013-10-3,53,47,44,50,46,43,99,95,79,30.42,30.18,5,0,5,0.01
2013-10-4,63,52,42,52,47,41,99,85,60,30.44,30.32,7,1,7,0.00
2013-10-5,68,56,47,51,47,44,91,73,51,30.32,30.12,7,1,9,0.00
2013-10-6,72,58,48,53,47,40,92,70,39,30.12,29.94,10,1,15,0.00
2013-10-7,60,54,50,52,49,46,97,85,62,30.12,29.96,13,3,15,0.18
2013-10-8,54,49,44,52,47,43,96,92,88,30.13,29.96,13,2,16,0.14
2013-10-9,57,48,42,47,44,41,97,87,65,30.10,29.96,8,1,9,0.00
2013-10-10,49,47,45,47,45,43,94,91,88,29.96,29.94,1,0,2,0.00
2013-10-15,66,58,45,45,41,39,90,56,39,30.28,30.11,12,2,13,0.00
2013-10-16,62,53,46,49,46,43,94,78,55,30.15,30.08,6,1,7,0.00
2013-10-17,58,48,45,49,46,44,98,92,73,30.21,30.14,10,2,10,0.00
2013-10-18,68,62,53,48,44,42,82,53,41,30.14,30.05,11,2,12,0.00
2013-10-19,65,54,45,50,47,44,96,78,51,30.13,30.07,7,0,7,0.00
2013-10-20,61,51,45,52,48,44,98,89,70,30.14,30.04,8,1,11,0.00
2013-10-21,68,56,45,53,48,44,98,79,58,30.07,29.96,9,2,11,0.00
2013-10-22,62,54,50,49,47,46,87,78,59,30.02,29.99,7,2,9,0.00
2013-10-29,57,48,38,38,34,30,92,62,39,30.04,29.96,7,1,7,0.00
2013-10-30,55,46,37,45,39,34,92,76,56,30.18,30.03,8,0,9,0.00
2013-10-31,56,52,49,52,48,43,96,85,75,30.26,30.14,19,2,19,0.02
2013-11-1,59,52,48,52,49,47,100,90,72,30.26,29.89,6,0,7,0.15
2013-11-2,54,49,43,51,45,39,98,86,60,30.05,29.71,25,4,26,0.62
2013-11-3,49,44,41,44,42,39,99,90,78,30.14,30.03,16,4,16,0.04
2013-11-4,47,45,43,46,44,42,97,96,91,30.16,30.10,13,3,13,0.06
2013-11-5,52,50,48,51,50,47,98,97,96,30.23,30.08,15,3,21,0.26
2013-11-6,53,50,47,52,49,47,99,98,97,30.28,30.06,3,0,4,0.32
2013-11-7,54,50,47,54,49,45,99,95,84,30.10,29.85,33,4,33,0.45
2013-11-8,50,47,44,47,46,42,97,95,90,30.18,30.10,14,2,14,0.04
2013-11-9,49,45,42,46,44,42,98,94,87,30.11,30.02,7,1,7,0.00
2013-11-10,56,50,46,49,46,44,95,87,76,30.07,30.02,9,1,10,0.00
2013-11-11,56,49,46,45,43,42,90,81,65,30.14,30.03,13,2,15,0.00
2013-11-13,52,48,44,51,47,44,99,97,86,30.47,30.28,5,0,7,0.00
2013-11-14,48,46,43,47,45,42,98,97,94,30.28,30.08,12,1,12,0.07
2013-11-15,46,44,42,44,42,40,100,96,91,30.10,29.52,25,4,29,0.17
2013-11-16,47,45,43,45,42,41,98,90,82,29.84,29.51,18,3,22,0.05
2013-11-17,53,48,44,46,44,42,94,86,78,29.97,29.84,20,6,22,0.01
2013-11-18,53,50,49,50,46,43,96,86,77,29.96,29.70,23,5,29,0.64
2013-11-19,51,46,37,51,44,30,98,92,74,30.02,29.68,25,3,25,0.41
2013-11-20,44,36,32,34,31,25,96,80,52,30.40,30.02,12,2,13,0.00
2013-11-21,44,36,30,27,20,10,87,56,27,30.57,30.40,14,3,18,0.00
2013-11-22,45,39,33,20,17,13,57,41,35,30.55,30.38,16,4,18,0.00
2013-11-23,47,42,38,21,20,18,48,42,32,30.39,30.15,18,4,18,0.00
2013-11-24,52,41,35,30,24,19,66,50,40,30.27,30.13,11,0,11,0.00
2013-11-25,52,40,34,34,28,26,76,63,38,30.33,30.26,5,0,6,0.00
2013-11-26,38,36,34,29,28,28,79,74,69,30.27,30.22,2,0,2,0.00
2013-11-27,52,46,42,34,31,30,64,57,48,30.00,29.94,9,2,11,0.00
2013-11-28,52,44,38,36,32,30,80,64,50,30.19,30.00,9,1,9,0.00
2013-11-29,43,39,34,40,35,32,92,86,79,30.36,30.19,4,0,4,0.01
2013-11-30,48,44,41,46,42,39,94,90,82,30.38,30.19,14,1,15,0.02
2013-12-1,53,51,48,53,50,46,98,96,90,30.20,29.89,24,7,30,0.00
2013-12-2,50,42,36,50,39,33,98,89,68,30.03,29.88,13,2,17,0.00
2013-12-3,40,35,30,36,26,19,97,70,46,30.28,30.03,20,3,20,0.01
2013-12-4,35,29,26,23,18,14,88,65,47,30.33,30.26,12,2,12,0.00
2013-12-5,32,27,23,19,16,14,75,62,49,30.29,30.15,10,1,10,0.00
2013-12-6,29,26,23,18,14,10,78,62,50,30.15,29.95,19,6,19,0.00
2013-12-7,27,22,17,11,8,6,67,54,43,30.43,30.08,14,3,17,0.00
2013-12-8,27,20,14,14,10,7,81,68,50,30.60,30.41,5,0,5,0.00
2013-12-9,27,22,17,20,16,12,86,78,71,30.61,30.53,9,0,10,0.00
2013-12-10,34,30,26,29,25,20,94,83,74,30.55,30.39,3,0,4,0.00
2013-12-11,38,31,26,34,28,25,97,91,77,30.39,30.20,5,0,7,0.00
2013-12-12,41,33,27,40,31,25,98,94,87,30.22,30.11,11,1,14,0.00
2013-12-13,46,44,41,46,43,40,98,97,96,30.42,30.20,13,2,13,0.00
2013-12-14,42,39,36,41,38,36,100,98,97,30.46,30.36,9,0,9,0.00
2013-12-15,45,40,37,44,40,36,99,98,96,30.48,30.41,6,0,9,0.00
2013-12-16,42,40,39,41,40,39,99,99,98,30.47,30.24,6,1,9,0.00
2013-12-17,39,36,35,39,36,35,99,99,98,30.24,30.17,5,0,7,0.00
2013-12-18,40,37,32,40,36,32,99,99,97,30.18,30.04,10,0,10,0.03
2013-12-19,34,32,31,33,32,30,98,97,94,30.25,30.10,9,1,9,0.00
2013-12-20,45,37,31,44,36,30,98,97,94,30.23,29.88,22,5,28,0.01
2013-12-21,50,46,44,47,45,44,99,95,88,30.21,29.92,14,2,16,0.00
2013-12-22,50,47,44,49,46,44,98,96,93,30.34,30.21,17,4,21,0.00
2013-12-23,47,47,46,47,46,46,98,97,97,30.32,30.29,14,4,16,0.00
2013-12-27,36,35,34,35,34,34,99,99,99,30.40,30.28,5,0,5,0.00
2013-12-28,42,39,35,42,38,34,99,95,88,30.50,30.39,5,0,5,0.00
2013-12-29,39,37,35,38,36,34,98,97,93,30.45,30.28,4,0,5,0.00
2013-12-30,39,37,36,39,37,35,99,98,98,30.29,30.17,7,0,7,0.00
2013-12-31,45,41,37,44,40,36,99,97,93,30.33,30.22,6,0,6,0.00
2014-1-1,46,41,37,44,40,36,100,97,90,30.35,30.24,9,1,9,0.00
2014-1-2,45,39,36,43,38,35,100,97,91,30.26,30.02,13,1,15,0.00